sensor_id;sensor_type;location;lat;lon;timestamp;temperature;humidity
79750;SHT31;69233;51.968;5.658;2023-04-25T00:01:15;9.4;65.6
79750;SHT31;69233;51.968;5.658;2023-04-25T00:03:46;9.4;65.6
79750;SHT31;69233;51.968;5.658;2023-04-25T00:06:16;9.3;65.6
79750;SHT31;69233;51.968;5.658;2023-04-25T00:08:48;9.3;65.7
79750;SHT31;69233;51.968;5.658;2023-04-25T00:11:17;9.3;65.9
79750;SHT31;69233;51.968;5.658;2023-04-25T00:13:47;9.2;65.6
79750;SHT31;69233;51.968;5.658;2023-04-25T00:16:18;9.2;66.0
79750;SHT31;69233;51.968;5.658;2023-04-25T00:18:47;9.2;66.2
79750;SHT31;69233;51.968;5.658;2023-04-25T00:21:19;9.1;66.2
79750;SHT31;69233;51.968;5.658;2023-04-25T00:23:52;9.1;66.2
79750;SHT31;69233;51.968;5.658;2023-04-25T00:26:22;9.1;66.2
79750;SHT31;69233;51.968;5.658;2023-04-25T00:28:52;9.1;66.2
79750;SHT31;69233;51.968;5.658;2023-04-25T00:31:22;9.0;65.8
79750;SHT31;69233;51.968;5.658;2023-04-25T00:33:51;9.0;66.2
79750;SHT31;69233;51.968;5.658;2023-04-25T00:36:21;9.0;66.1
79750;SHT31;69233;51.968;5.658;2023-04-25T00:38:50;9.0;66.0
79750;SHT31;69233;51.968;5.658;2023-04-25T00:41:20;8.9;65.8
79750;SHT31;69233;51.968;5.658;2023-04-25T00:43:51;8.9;66.0
79750;SHT31;69233;51.968;5.658;2023-04-25T00:46:21;8.9;66.1
79750;SHT31;69233;51.968;5.658;2023-04-25T00:48:50;8.8;66.3
79750;SHT31;69233;51.968;5.658;2023-04-25T00:51:21;8.8;66.3
79750;SHT31;69233;51.968;5.658;2023-04-25T00:53:53;8.8;66.1
79750;SHT31;69233;51.968;5.658;2023-04-25T00:56:23;8.8;66.2
79750;SHT31;69233;51.968;5.658;2023-04-25T00:58:54;8.7;66.1
79750;SHT31;69233;51.968;5.658;2023-04-25T01:01:24;8.7;66.2
79750;SHT31;69233;51.968;5.658;2023-04-25T01:03:55;8.7;66.3
79750;SHT31;69233;51.968;5.658;2023-04-25T01:06:26;8.7;66.7
79750;SHT31;69233;51.968;5.658;2023-04-25T01:08:56;8.6;67.2
79750;SHT31;69233;51.968;5.658;2023-04-25T01:11:26;8.6;67.6
79750;SHT31;69233;51.968;5.658;2023-04-25T01:13:56;8.6;68.1
79750;SHT31;69233;51.968;5.658;2023-04-25T01:16:25;8.6;68.4
79750;SHT31;69233;51.968;5.658;2023-04-25T01:18:56;8.6;69.0
79750;SHT31;69233;51.968;5.658;2023-04-25T01:21:26;8.7;69.0
79750;SHT31;69233;51.968;5.658;2023-04-25T01:23:59;8.7;68.9
79750;SHT31;69233;51.968;5.658;2023-04-25T01:26:30;8.7;68.8
79750;SHT31;69233;51.968;5.658;2023-04-25T01:29:00;8.7;69.3
79750;SHT31;69233;51.968;5.658;2023-04-25T01:31:32;8.8;68.9
79750;SHT31;69233;51.968;5.658;2023-04-25T01:34:02;8.8;68.9
79750;SHT31;69233;51.968;5.658;2023-04-25T01:36:32;8.8;68.4
79750;SHT31;69233;51.968;5.658;2023-04-25T01:39:03;8.9;68.2
79750;SHT31;69233;51.968;5.658;2023-04-25T01:41:33;8.9;68.3
79750;SHT31;69233;51.968;5.658;2023-04-25T01:44:03;8.9;67.9
79750;SHT31;69233;51.968;5.658;2023-04-25T01:46:34;8.9;68.0
79750;SHT31;69233;51.968;5.658;2023-04-25T01:49:03;9.0;67.6
79750;SHT31;69233;51.968;5.658;2023-04-25T01:51:33;9.0;67.8
79750;SHT31;69233;51.968;5.658;2023-04-25T01:54:05;9.0;67.7
79750;SHT31;69233;51.968;5.658;2023-04-25T01:56:37;9.0;67.4
79750;SHT31;69233;51.968;5.658;2023-04-25T01:59:07;9.0;67.3
79750;SHT31;69233;51.968;5.658;2023-04-25T02:01:37;9.0;67.1
79750;SHT31;69233;51.968;5.658;2023-04-25T02:04:06;9.0;66.7
79750;SHT31;69233;51.968;5.658;2023-04-25T02:06:36;9.0;66.4
79750;SHT31;69233;51.968;5.658;2023-04-25T02:09:05;9.0;66.0
79750;SHT31;69233;51.968;5.658;2023-04-25T02:11:35;9.0;65.8
79750;SHT31;69233;51.968;5.658;2023-04-25T02:14:04;9.0;65.2
79750;SHT31;69233;51.968;5.658;2023-04-25T02:16:34;8.9;65.4
79750;SHT31;69233;51.968;5.658;2023-04-25T02:19:03;8.9;65.2
79750;SHT31;69233;51.968;5.658;2023-04-25T02:21:36;8.9;65.2
79750;SHT31;69233;51.968;5.658;2023-04-25T02:24:08;8.8;65.2
79750;SHT31;69233;51.968;5.658;2023-04-25T02:26:38;8.8;64.8
79750;SHT31;69233;51.968;5.658;2023-04-25T02:29:08;8.7;64.6
79750;SHT31;69233;51.968;5.658;2023-04-25T02:31:38;8.7;65.0
79750;SHT31;69233;51.968;5.658;2023-04-25T02:34:07;8.6;65.2
79750;SHT31;69233;51.968;5.658;2023-04-25T02:36:37;8.6;65.2
79750;SHT31;69233;51.968;5.658;2023-04-25T02:39:07;8.5;65.3
79750;SHT31;69233;51.968;5.658;2023-04-25T02:41:37;8.5;65.2
79750;SHT31;69233;51.968;5.658;2023-04-25T02:44:07;8.4;65.4
79750;SHT31;69233;51.968;5.658;2023-04-25T02:46:37;8.4;65.4
79750;SHT31;69233;51.968;5.658;2023-04-25T02:49:07;8.4;65.3
79750;SHT31;69233;51.968;5.658;2023-04-25T02:51:37;8.3;65.4
79750;SHT31;69233;51.968;5.658;2023-04-25T02:54:08;8.3;65.4
79750;SHT31;69233;51.968;5.658;2023-04-25T02:56:38;8.2;65.4
79750;SHT31;69233;51.968;5.658;2023-04-25T02:59:07;8.2;65.4
79750;SHT31;69233;51.968;5.658;2023-04-25T03:01:37;8.1;65.6
79750;SHT31;69233;51.968;5.658;2023-04-25T03:04:06;8.1;65.4
79750;SHT31;69233;51.968;5.658;2023-04-25T03:06:36;8.0;65.6
79750;SHT31;69233;51.968;5.658;2023-04-25T03:09:06;8.0;65.9
79750;SHT31;69233;51.968;5.658;2023-04-25T03:11:37;8.0;65.7
79750;SHT31;69233;51.968;5.658;2023-04-25T03:14:08;7.9;65.9
79750;SHT31;69233;51.968;5.658;2023-04-25T03:16:38;7.9;66.2
79750;SHT31;69233;51.968;5.658;2023-04-25T03:19:08;7.8;66.4
79750;SHT31;69233;51.968;5.658;2023-04-25T03:21:37;7.8;66.8
79750;SHT31;69233;51.968;5.658;2023-04-25T03:24:07;7.8;67.1
79750;SHT31;69233;51.968;5.658;2023-04-25T03:26:38;7.8;67.2
79750;SHT31;69233;51.968;5.658;2023-04-25T03:29:07;7.8;67.8
79750;SHT31;69233;51.968;5.658;2023-04-25T03:31:37;7.8;68.3
79750;SHT31;69233;51.968;5.658;2023-04-25T03:34:07;7.8;68.4
79750;SHT31;69233;51.968;5.658;2023-04-25T03:36:36;7.8;68.3
79750;SHT31;69233;51.968;5.658;2023-04-25T03:39:06;7.8;68.8
79750;SHT31;69233;51.968;5.658;2023-04-25T03:41:36;7.8;68.8
79750;SHT31;69233;51.968;5.658;2023-04-25T03:44:07;7.9;68.7
79750;SHT31;69233;51.968;5.658;2023-04-25T03:46:37;7.9;69.0
79750;SHT31;69233;51.968;5.658;2023-04-25T03:49:07;7.9;68.8
79750;SHT31;69233;51.968;5.658;2023-04-25T03:51:36;8.0;68.1
79750;SHT31;69233;51.968;5.658;2023-04-25T03:54:06;8.0;67.9
79750;SHT31;69233;51.968;5.658;2023-04-25T03:56:37;8.0;67.7
79750;SHT31;69233;51.968;5.658;2023-04-25T03:59:06;8.0;67.3
79750;SHT31;69233;51.968;5.658;2023-04-25T04:01:36;8.0;67.1
79750;SHT31;69233;51.968;5.658;2023-04-25T04:04:06;8.0;67.1
79750;SHT31;69233;51.968;5.658;2023-04-25T04:06:37;8.0;66.9
79750;SHT31;69233;51.968;5.658;2023-04-25T04:09:07;8.0;67.0
79750;SHT31;69233;51.968;5.658;2023-04-25T04:11:39;8.0;67.4
79750;SHT31;69233;51.968;5.658;2023-04-25T04:14:08;8.0;67.4
79750;SHT31;69233;51.968;5.658;2023-04-25T04:16:38;8.0;67.6
79750;SHT31;69233;51.968;5.658;2023-04-25T04:19:08;8.0;67.9
79750;SHT31;69233;51.968;5.658;2023-04-25T04:21:38;8.0;68.1
79750;SHT31;69233;51.968;5.658;2023-04-25T04:24:08;8.0;68.1
79750;SHT31;69233;51.968;5.658;2023-04-25T04:26:37;8.0;68.3
79750;SHT31;69233;51.968;5.658;2023-04-25T04:29:07;8.0;68.2
79750;SHT31;69233;51.968;5.658;2023-04-25T04:31:38;8.0;68.4
79750;SHT31;69233;51.968;5.658;2023-04-25T04:34:09;8.0;68.6
79750;SHT31;69233;51.968;5.658;2023-04-25T04:36:40;8.1;68.5
79750;SHT31;69233;51.968;5.658;2023-04-25T04:39:11;8.1;68.4
79750;SHT31;69233;51.968;5.658;2023-04-25T04:41:41;8.1;68.7
79750;SHT31;69233;51.968;5.658;2023-04-25T04:44:12;8.1;68.4
79750;SHT31;69233;51.968;5.658;2023-04-25T04:46:42;8.2;68.6
79750;SHT31;69233;51.968;5.658;2023-04-25T04:49:12;8.2;68.9
79750;SHT31;69233;51.968;5.658;2023-04-25T04:51:43;8.2;68.0
79750;SHT31;69233;51.968;5.658;2023-04-25T04:54:14;8.3;68.0
79750;SHT31;69233;51.968;5.658;2023-04-25T04:56:43;8.3;68.3
79750;SHT31;69233;51.968;5.658;2023-04-25T04:59:13;8.3;68.4
79750;SHT31;69233;51.968;5.658;2023-04-25T05:01:42;8.4;68.2
79750;SHT31;69233;51.968;5.658;2023-04-25T05:04:13;8.4;68.3
79750;SHT31;69233;51.968;5.658;2023-04-25T05:06:42;8.4;67.8
79750;SHT31;69233;51.968;5.658;2023-04-25T05:09:12;8.5;67.9
79750;SHT31;69233;51.968;5.658;2023-04-25T05:11:42;8.5;67.6
79750;SHT31;69233;51.968;5.658;2023-04-25T05:14:12;8.5;68.0
79750;SHT31;69233;51.968;5.658;2023-04-25T05:16:42;8.6;68.3
79750;SHT31;69233;51.968;5.658;2023-04-25T05:19:12;8.6;68.2
79750;SHT31;69233;51.968;5.658;2023-04-25T05:21:41;8.6;67.7
79750;SHT31;69233;51.968;5.658;2023-04-25T05:24:11;8.7;68.1
79750;SHT31;69233;51.968;5.658;2023-04-25T05:26:41;8.7;68.0
79750;SHT31;69233;51.968;5.658;2023-04-25T05:29:11;8.8;68.1
79750;SHT31;69233;51.968;5.658;2023-04-25T05:31:40;8.8;67.7
79750;SHT31;69233;51.968;5.658;2023-04-25T05:34:10;8.9;67.9
79750;SHT31;69233;51.968;5.658;2023-04-25T05:36:39;8.9;67.9
79750;SHT31;69233;51.968;5.658;2023-04-25T05:39:09;9.0;67.8
79750;SHT31;69233;51.968;5.658;2023-04-25T05:41:38;9.0;66.6
79750;SHT31;69233;51.968;5.658;2023-04-25T05:44:08;9.0;66.2
79750;SHT31;69233;51.968;5.658;2023-04-25T05:46:38;9.1;66.6
79750;SHT31;69233;51.968;5.658;2023-04-25T05:49:09;9.1;65.6
79750;SHT31;69233;51.968;5.658;2023-04-25T05:51:39;9.1;65.1
79750;SHT31;69233;51.968;5.658;2023-04-25T05:54:10;9.1;65.4
79750;SHT31;69233;51.968;5.658;2023-04-25T05:56:40;9.2;64.8
79750;SHT31;69233;51.968;5.658;2023-04-25T05:59:09;9.2;64.3
79750;SHT31;69233;51.968;5.658;2023-04-25T06:01:39;9.2;64.8
79750;SHT31;69233;51.968;5.658;2023-04-25T06:04:09;9.2;65.0
79750;SHT31;69233;51.968;5.658;2023-04-25T06:06:38;9.2;65.0
79750;SHT31;69233;51.968;5.658;2023-04-25T06:09:08;9.2;65.7
79750;SHT31;69233;51.968;5.658;2023-04-25T06:11:37;9.2;65.9
79750;SHT31;69233;51.968;5.658;2023-04-25T06:14:09;9.2;66.7
79750;SHT31;69233;51.968;5.658;2023-04-25T06:16:39;9.3;64.9
79750;SHT31;69233;51.968;5.658;2023-04-25T06:19:08;9.3;66.3
79750;SHT31;69233;51.968;5.658;2023-04-25T06:21:38;9.3;66.6
79750;SHT31;69233;51.968;5.658;2023-04-25T06:24:07;9.4;65.5
79750;SHT31;69233;51.968;5.658;2023-04-25T06:26:37;9.5;66.2
79750;SHT31;69233;51.968;5.658;2023-04-25T06:29:06;9.5;65.5
79750;SHT31;69233;51.968;5.658;2023-04-25T06:31:36;9.6;65.3
79750;SHT31;69233;51.968;5.658;2023-04-25T06:34:06;9.6;64.8
79750;SHT31;69233;51.968;5.658;2023-04-25T06:36:35;9.7;64.9
79750;SHT31;69233;51.968;5.658;2023-04-25T06:39:05;9.7;64.6
79750;SHT31;69233;51.968;5.658;2023-04-25T06:41:35;9.8;63.6
79750;SHT31;69233;51.968;5.658;2023-04-25T06:44:04;9.8;64.6
79750;SHT31;69233;51.968;5.658;2023-04-25T06:46:34;9.9;64.1
79750;SHT31;69233;51.968;5.658;2023-04-25T06:49:05;9.9;63.5
79750;SHT31;69233;51.968;5.658;2023-04-25T06:51:34;10.0;63.5
79750;SHT31;69233;51.968;5.658;2023-04-25T06:54:04;10.1;62.0
79750;SHT31;69233;51.968;5.658;2023-04-25T06:56:33;10.1;62.2
79750;SHT31;69233;51.968;5.658;2023-04-25T06:59:03;10.1;62.0
79750;SHT31;69233;51.968;5.658;2023-04-25T07:01:32;10.2;62.7
79750;SHT31;69233;51.968;5.658;2023-04-25T07:04:02;10.2;62.1
79750;SHT31;69233;51.968;5.658;2023-04-25T07:06:34;10.3;63.4
79750;SHT31;69233;51.968;5.658;2023-04-25T07:09:05;10.4;62.0
79750;SHT31;69233;51.968;5.658;2023-04-25T07:11:36;10.4;61.7
79750;SHT31;69233;51.968;5.658;2023-04-25T07:14:06;10.5;61.6
79750;SHT31;69233;51.968;5.658;2023-04-25T07:16:35;10.6;58.6
79750;SHT31;69233;51.968;5.658;2023-04-25T07:19:05;10.6;58.3
79750;SHT31;69233;51.968;5.658;2023-04-25T07:21:35;10.6;58.2
79750;SHT31;69233;51.968;5.658;2023-04-25T07:24:05;10.6;59.6
79750;SHT31;69233;51.968;5.658;2023-04-25T07:26:34;10.7;58.9
79750;SHT31;69233;51.968;5.658;2023-04-25T07:29:04;10.7;60.8
79750;SHT31;69233;51.968;5.658;2023-04-25T07:31:34;10.8;60.1
79750;SHT31;69233;51.968;5.658;2023-04-25T07:34:05;10.8;59.0
79750;SHT31;69233;51.968;5.658;2023-04-25T07:36:35;10.9;58.7
79750;SHT31;69233;51.968;5.658;2023-04-25T07:39:06;11.0;59.6
79750;SHT31;69233;51.968;5.658;2023-04-25T07:41:36;11.0;58.3
79750;SHT31;69233;51.968;5.658;2023-04-25T07:44:05;11.1;58.7
79750;SHT31;69233;51.968;5.658;2023-04-25T07:46:35;11.1;58.5
79750;SHT31;69233;51.968;5.658;2023-04-25T07:49:04;11.2;58.4
79750;SHT31;69233;51.968;5.658;2023-04-25T07:51:34;11.2;58.1
79750;SHT31;69233;51.968;5.658;2023-04-25T07:54:03;11.3;59.1
79750;SHT31;69233;51.968;5.658;2023-04-25T07:56:33;11.3;60.4
79750;SHT31;69233;51.968;5.658;2023-04-25T07:59:02;11.4;57.9
79750;SHT31;69233;51.968;5.658;2023-04-25T08:01:33;11.5;58.0
79750;SHT31;69233;51.968;5.658;2023-04-25T08:04:03;11.6;57.9
79750;SHT31;69233;51.968;5.658;2023-04-25T08:06:33;11.8;58.0
79750;SHT31;69233;51.968;5.658;2023-04-25T08:09:03;11.9;55.1
79750;SHT31;69233;51.968;5.658;2023-04-25T08:11:33;12.0;54.7
79750;SHT31;69233;51.968;5.658;2023-04-25T08:14:02;12.2;56.7
79750;SHT31;69233;51.968;5.658;2023-04-25T08:16:32;12.3;55.8
79750;SHT31;69233;51.968;5.658;2023-04-25T08:19:02;12.5;55.6
79750;SHT31;69233;51.968;5.658;2023-04-25T08:21:32;12.6;55.0
79750;SHT31;69233;51.968;5.658;2023-04-25T08:24:02;12.8;51.2
79750;SHT31;69233;51.968;5.658;2023-04-25T08:26:31;12.9;49.8
79750;SHT31;69233;51.968;5.658;2023-04-25T08:29:01;13.0;50.6
79750;SHT31;69233;51.968;5.658;2023-04-25T08:31:31;13.1;50.6
79750;SHT31;69233;51.968;5.658;2023-04-25T08:34:01;13.1;48.7
79750;SHT31;69233;51.968;5.658;2023-04-25T08:36:30;13.2;51.2
79750;SHT31;69233;51.968;5.658;2023-04-25T08:39:00;13.2;48.8
79750;SHT31;69233;51.968;5.658;2023-04-25T08:41:30;13.3;48.8
79750;SHT31;69233;51.968;5.658;2023-04-25T08:44:01;13.3;48.5
79750;SHT31;69233;51.968;5.658;2023-04-25T08:46:32;13.3;49.5
79750;SHT31;69233;51.968;5.658;2023-04-25T08:49:02;13.3;48.6
79750;SHT31;69233;51.968;5.658;2023-04-25T08:51:33;13.4;47.3
79750;SHT31;69233;51.968;5.658;2023-04-25T08:54:10;13.4;46.3
79750;SHT31;69233;51.968;5.658;2023-04-25T08:56:43;13.4;45.6
79750;SHT31;69233;51.968;5.658;2023-04-25T08:59:14;13.5;47.6
79750;SHT31;69233;51.968;5.658;2023-04-25T09:01:44;13.5;46.8
79750;SHT31;69233;51.968;5.658;2023-04-25T09:04:15;13.6;47.7
79750;SHT31;69233;51.968;5.658;2023-04-25T09:06:44;13.7;46.5
79750;SHT31;69233;51.968;5.658;2023-04-25T09:09:14;13.8;46.5
79750;SHT31;69233;51.968;5.658;2023-04-25T09:11:44;13.8;47.3
79750;SHT31;69233;51.968;5.658;2023-04-25T09:14:15;13.7;47.9
79750;SHT31;69233;51.968;5.658;2023-04-25T09:17:04;13.6;47.5
79750;SHT31;69233;51.968;5.658;2023-04-25T09:19:36;13.4;47.4
79750;SHT31;69233;51.968;5.658;2023-04-25T09:22:08;13.3;48.1
79750;SHT31;69233;51.968;5.658;2023-04-25T09:24:39;13.2;47.7
79750;SHT31;69233;51.968;5.658;2023-04-25T09:27:13;13.1;49.0
79750;SHT31;69233;51.968;5.658;2023-04-25T09:29:46;13.1;48.4
79750;SHT31;69233;51.968;5.658;2023-04-25T09:32:18;13.1;50.0
79750;SHT31;69233;51.968;5.658;2023-04-25T09:34:50;13.1;48.5
79750;SHT31;69233;51.968;5.658;2023-04-25T09:37:21;13.2;48.1
79750;SHT31;69233;51.968;5.658;2023-04-25T09:39:53;13.4;47.3
79750;SHT31;69233;51.968;5.658;2023-04-25T09:42:25;13.5;47.1
79750;SHT31;69233;51.968;5.658;2023-04-25T09:44:56;13.7;44.6
79750;SHT31;69233;51.968;5.658;2023-04-25T09:47:26;13.9;42.5
79750;SHT31;69233;51.968;5.658;2023-04-25T09:49:56;14.1;41.6
79750;SHT31;69233;51.968;5.658;2023-04-25T09:52:26;14.3;42.3
79750;SHT31;69233;51.968;5.658;2023-04-25T09:54:55;14.5;39.8
79750;SHT31;69233;51.968;5.658;2023-04-25T09:57:27;14.8;42.5
79750;SHT31;69233;51.968;5.658;2023-04-25T09:59:56;15.2;40.8
79750;SHT31;69233;51.968;5.658;2023-04-25T10:02:27;15.6;41.5
79750;SHT31;69233;51.968;5.658;2023-04-25T10:05:01;15.8;40.1
79750;SHT31;69233;51.968;5.658;2023-04-25T10:07:33;15.9;38.8
79750;SHT31;69233;51.968;5.658;2023-04-25T10:10:06;16.0;38.2
79750;SHT31;69233;51.968;5.658;2023-04-25T10:12:37;16.0;40.1
79750;SHT31;69233;51.968;5.658;2023-04-25T10:15:08;15.9;38.5
79750;SHT31;69233;51.968;5.658;2023-04-25T10:17:38;15.8;37.6
79750;SHT31;69233;51.968;5.658;2023-04-25T10:20:10;15.6;39.2
79750;SHT31;69233;51.968;5.658;2023-04-25T10:22:42;15.4;39.1
79750;SHT31;69233;51.968;5.658;2023-04-25T10:25:16;15.3;39.4
79750;SHT31;69233;51.968;5.658;2023-04-25T10:27:46;15.2;40.5
79750;SHT31;69233;51.968;5.658;2023-04-25T10:30:16;15.1;41.2
79750;SHT31;69233;51.968;5.658;2023-04-25T10:32:46;15.0;41.6
79750;SHT31;69233;51.968;5.658;2023-04-25T10:35:19;14.9;41.2
79750;SHT31;69233;51.968;5.658;2023-04-25T10:38:00;14.8;40.8
79750;SHT31;69233;51.968;5.658;2023-04-25T10:40:32;14.8;40.8
79750;SHT31;69233;51.968;5.658;2023-04-25T10:43:36;14.7;41.8
79750;SHT31;69233;51.968;5.658;2023-04-25T10:46:16;14.8;41.7
79750;SHT31;69233;51.968;5.658;2023-04-25T10:48:48;14.8;40.8
79750;SHT31;69233;51.968;5.658;2023-04-25T10:51:20;14.9;43.6
79750;SHT31;69233;51.968;5.658;2023-04-25T10:53:59;15.0;41.4
79750;SHT31;69233;51.968;5.658;2023-04-25T10:56:31;15.1;39.8
79750;SHT31;69233;51.968;5.658;2023-04-25T10:59:11;15.2;39.9
79750;SHT31;69233;51.968;5.658;2023-04-25T11:01:43;15.3;39.2
79750;SHT31;69233;51.968;5.658;2023-04-25T11:04:23;15.3;40.2
79750;SHT31;69233;51.968;5.658;2023-04-25T11:07:05;15.4;38.0
79750;SHT31;69233;51.968;5.658;2023-04-25T11:09:39;15.5;39.1
79750;SHT31;69233;51.968;5.658;2023-04-25T11:12:10;15.5;38.5
79750;SHT31;69233;51.968;5.658;2023-04-25T11:14:41;15.6;38.0
79750;SHT31;69233;51.968;5.658;2023-04-25T11:17:11;15.7;38.3
79750;SHT31;69233;51.968;5.658;2023-04-25T11:19:40;15.7;37.0
79750;SHT31;69233;51.968;5.658;2023-04-25T11:22:10;15.8;39.1
79750;SHT31;69233;51.968;5.658;2023-04-25T11:24:40;15.8;36.6
79750;SHT31;69233;51.968;5.658;2023-04-25T11:27:10;15.9;41.0
79750;SHT31;69233;51.968;5.658;2023-04-25T11:29:40;16.0;38.5
79750;SHT31;69233;51.968;5.658;2023-04-25T11:32:10;16.2;38.1
79750;SHT31;69233;51.968;5.658;2023-04-25T11:34:44;16.4;40.1
79750;SHT31;69233;51.968;5.658;2023-04-25T11:37:14;16.7;38.2
79750;SHT31;69233;51.968;5.658;2023-04-25T11:39:45;17.0;35.3
79750;SHT31;69233;51.968;5.658;2023-04-25T11:42:15;17.2;34.6
79750;SHT31;69233;51.968;5.658;2023-04-25T11:44:47;17.3;35.2
79750;SHT31;69233;51.968;5.658;2023-04-25T11:47:31;17.4;36.5
79750;SHT31;69233;51.968;5.658;2023-04-25T11:50:02;17.5;39.8
79750;SHT31;69233;51.968;5.658;2023-04-25T11:52:40;17.9;37.3
79750;SHT31;69233;51.968;5.658;2023-04-25T11:55:14;18.2;35.4
79750;SHT31;69233;51.968;5.658;2023-04-25T11:57:45;18.3;35.5
79750;SHT31;69233;51.968;5.658;2023-04-25T12:00:18;18.3;34.9
79750;SHT31;69233;51.968;5.658;2023-04-25T12:02:51;18.2;35.0
79750;SHT31;69233;51.968;5.658;2023-04-25T12:05:24;17.8;36.1
79750;SHT31;69233;51.968;5.658;2023-04-25T12:07:54;17.4;36.0
79750;SHT31;69233;51.968;5.658;2023-04-25T12:10:25;17.0;37.4
79750;SHT31;69233;51.968;5.658;2023-04-25T12:12:54;16.6;39.0
79750;SHT31;69233;51.968;5.658;2023-04-25T12:15:25;16.4;39.9
79750;SHT31;69233;51.968;5.658;2023-04-25T12:17:55;16.3;41.0
79750;SHT31;69233;51.968;5.658;2023-04-25T12:20:25;16.3;40.0
79750;SHT31;69233;51.968;5.658;2023-04-25T12:22:57;16.3;39.1
79750;SHT31;69233;51.968;5.658;2023-04-25T12:25:38;16.3;39.3
79750;SHT31;69233;51.968;5.658;2023-04-25T12:28:13;16.3;37.6
79750;SHT31;69233;51.968;5.658;2023-04-25T12:30:57;16.3;38.7
79750;SHT31;69233;51.968;5.658;2023-04-25T12:33:29;16.3;38.2
79750;SHT31;69233;51.968;5.658;2023-04-25T12:36:00;16.4;38.7
79750;SHT31;69233;51.968;5.658;2023-04-25T12:38:38;16.4;37.4
79750;SHT31;69233;51.968;5.658;2023-04-25T12:41:08;16.5;37.8
79750;SHT31;69233;51.968;5.658;2023-04-25T12:43:38;16.5;37.5
79750;SHT31;69233;51.968;5.658;2023-04-25T12:46:11;16.5;37.0
79750;SHT31;69233;51.968;5.658;2023-04-25T12:48:40;16.6;37.0
79750;SHT31;69233;51.968;5.658;2023-04-25T12:51:11;16.6;41.0
79750;SHT31;69233;51.968;5.658;2023-04-25T12:53:41;16.9;38.3
79750;SHT31;69233;51.968;5.658;2023-04-25T12:56:11;17.3;37.8
79750;SHT31;69233;51.968;5.658;2023-04-25T12:58:41;17.5;36.1
79750;SHT31;69233;51.968;5.658;2023-04-25T13:01:11;17.6;38.0
79750;SHT31;69233;51.968;5.658;2023-04-25T13:03:42;17.6;36.5
79750;SHT31;69233;51.968;5.658;2023-04-25T13:06:12;17.6;36.4
79750;SHT31;69233;51.968;5.658;2023-04-25T13:08:42;17.6;37.0
79750;SHT31;69233;51.968;5.658;2023-04-25T13:11:12;17.6;36.5
79750;SHT31;69233;51.968;5.658;2023-04-25T13:13:44;17.6;38.3
79750;SHT31;69233;51.968;5.658;2023-04-25T13:16:14;17.7;39.4
79750;SHT31;69233;51.968;5.658;2023-04-25T13:18:43;17.9;36.3
79750;SHT31;69233;51.968;5.658;2023-04-25T13:21:13;18.3;40.4
79750;SHT31;69233;51.968;5.658;2023-04-25T13:23:43;18.8;34.8
79750;SHT31;69233;51.968;5.658;2023-04-25T13:26:14;19.4;32.3
79750;SHT31;69233;51.968;5.658;2023-04-25T13:28:43;19.7;31.5
79750;SHT31;69233;51.968;5.658;2023-04-25T13:31:13;19.9;30.8
79750;SHT31;69233;51.968;5.658;2023-04-25T13:33:43;19.9;34.2
79750;SHT31;69233;51.968;5.658;2023-04-25T13:36:13;20.1;35.2
79750;SHT31;69233;51.968;5.658;2023-04-25T13:38:42;20.4;32.4
79750;SHT31;69233;51.968;5.658;2023-04-25T13:41:14;20.8;31.4
79750;SHT31;69233;51.968;5.658;2023-04-25T13:43:46;20.9;29.4
79750;SHT31;69233;51.968;5.658;2023-04-25T13:46:16;21.0;29.4
79750;SHT31;69233;51.968;5.658;2023-04-25T13:48:46;20.9;30.2
79750;SHT31;69233;51.968;5.658;2023-04-25T13:51:17;20.7;30.6
79750;SHT31;69233;51.968;5.658;2023-04-25T13:53:50;20.6;31.8
79750;SHT31;69233;51.968;5.658;2023-04-25T13:56:20;20.6;32.7
79750;SHT31;69233;51.968;5.658;2023-04-25T13:58:50;20.6;31.0
79750;SHT31;69233;51.968;5.658;2023-04-25T14:01:21;20.6;28.0
79750;SHT31;69233;51.968;5.658;2023-04-25T14:03:51;20.4;29.1
79750;SHT31;69233;51.968;5.658;2023-04-25T14:06:20;20.0;29.7
79750;SHT31;69233;51.968;5.658;2023-04-25T14:08:51;19.4;30.7
79750;SHT31;69233;51.968;5.658;2023-04-25T14:11:21;18.7;32.2
79750;SHT31;69233;51.968;5.658;2023-04-25T14:13:50;18.2;32.9
79750;SHT31;69233;51.968;5.658;2023-04-25T14:16:22;17.7;33.1
79750;SHT31;69233;51.968;5.658;2023-04-25T14:18:52;17.3;33.9
79750;SHT31;69233;51.968;5.658;2023-04-25T14:21:22;17.0;35.1
79750;SHT31;69233;51.968;5.658;2023-04-25T14:23:57;16.9;38.8
79750;SHT31;69233;51.968;5.658;2023-04-25T14:26:28;17.1;39.1
79750;SHT31;69233;51.968;5.658;2023-04-25T14:28:58;17.9;33.8
79750;SHT31;69233;51.968;5.658;2023-04-25T14:31:28;18.2;32.8
79750;SHT31;69233;51.968;5.658;2023-04-25T14:33:58;18.2;31.9
79750;SHT31;69233;51.968;5.658;2023-04-25T14:36:28;18.2;32.5
79750;SHT31;69233;51.968;5.658;2023-04-25T14:38:58;18.0;32.4
79750;SHT31;69233;51.968;5.658;2023-04-25T14:41:28;17.7;32.7
79750;SHT31;69233;51.968;5.658;2023-04-25T14:43:59;17.4;33.4
79750;SHT31;69233;51.968;5.658;2023-04-25T14:46:28;17.0;33.1
79750;SHT31;69233;51.968;5.658;2023-04-25T14:49:00;16.8;35.0
79750;SHT31;69233;51.968;5.658;2023-04-25T14:51:30;16.6;36.3
79750;SHT31;69233;51.968;5.658;2023-04-25T14:54:02;16.5;37.5
79750;SHT31;69233;51.968;5.658;2023-04-25T14:56:31;16.5;36.3
79750;SHT31;69233;51.968;5.658;2023-04-25T14:59:01;16.6;37.0
79750;SHT31;69233;51.968;5.658;2023-04-25T15:01:30;16.8;35.7
79750;SHT31;69233;51.968;5.658;2023-04-25T15:04:01;16.9;32.9
79750;SHT31;69233;51.968;5.658;2023-04-25T15:06:31;16.9;33.2
79750;SHT31;69233;51.968;5.658;2023-04-25T15:09:01;16.9;34.2
79750;SHT31;69233;51.968;5.658;2023-04-25T15:11:31;16.8;34.0
79750;SHT31;69233;51.968;5.658;2023-04-25T15:14:02;16.7;33.3
79750;SHT31;69233;51.968;5.658;2023-04-25T15:16:33;16.5;34.3
79750;SHT31;69233;51.968;5.658;2023-04-25T15:19:02;16.3;34.3
79750;SHT31;69233;51.968;5.658;2023-04-25T15:21:35;16.2;35.1
79750;SHT31;69233;51.968;5.658;2023-04-25T15:24:05;16.0;34.6
79750;SHT31;69233;51.968;5.658;2023-04-25T15:26:35;15.9;37.1
79750;SHT31;69233;51.968;5.658;2023-04-25T15:29:04;15.9;37.6
79750;SHT31;69233;51.968;5.658;2023-04-25T15:31:34;15.9;37.3
79750;SHT31;69233;51.968;5.658;2023-04-25T15:34:03;15.9;37.1
79750;SHT31;69233;51.968;5.658;2023-04-25T15:36:33;15.8;37.7
79750;SHT31;69233;51.968;5.658;2023-04-25T15:39:03;15.7;37.8
79750;SHT31;69233;51.968;5.658;2023-04-25T15:41:32;15.5;38.0
79750;SHT31;69233;51.968;5.658;2023-04-25T15:44:02;15.4;38.6
79750;SHT31;69233;51.968;5.658;2023-04-25T15:46:32;15.3;37.7
79750;SHT31;69233;51.968;5.658;2023-04-25T15:49:02;15.2;37.3
79750;SHT31;69233;51.968;5.658;2023-04-25T15:51:34;15.1;36.6
79750;SHT31;69233;51.968;5.658;2023-04-25T15:54:04;15.0;36.3
79750;SHT31;69233;51.968;5.658;2023-04-25T15:56:34;14.8;36.9
79750;SHT31;69233;51.968;5.658;2023-04-25T15:59:04;14.7;37.5
79750;SHT31;69233;51.968;5.658;2023-04-25T16:01:35;14.6;38.0
79750;SHT31;69233;51.968;5.658;2023-04-25T16:04:06;14.4;38.1
79750;SHT31;69233;51.968;5.658;2023-04-25T16:06:38;14.3;39.6
79750;SHT31;69233;51.968;5.658;2023-04-25T16:09:09;14.2;39.9
79750;SHT31;69233;51.968;5.658;2023-04-25T16:11:40;14.2;39.7
79750;SHT31;69233;51.968;5.658;2023-04-25T16:14:10;14.1;39.3
79750;SHT31;69233;51.968;5.658;2023-04-25T16:16:41;14.0;39.4
79750;SHT31;69233;51.968;5.658;2023-04-25T16:19:11;13.9;39.1
79750;SHT31;69233;51.968;5.658;2023-04-25T16:21:41;13.8;38.8
79750;SHT31;69233;51.968;5.658;2023-04-25T16:24:11;13.8;39.0
79750;SHT31;69233;51.968;5.658;2023-04-25T16:26:41;13.7;39.9
79750;SHT31;69233;51.968;5.658;2023-04-25T16:29:11;13.6;39.9